createdAt,value
2018-12-15T00:01:55.261Z,59.57
2018-12-15T00:04:23.226Z,54.37
2018-12-15T00:06:51.545Z,71.80
2018-12-15T00:09:19.304Z,51.93
2018-12-15T00:11:47.066Z,58.13
2018-12-15T00:14:14.811Z,83.57
2018-12-15T00:16:42.510Z,78.47
2018-12-15T00:19:10.205Z,64.13
2018-12-15T00:21:37.858Z,65.63
2018-12-15T00:24:05.919Z,72.97
2018-12-15T00:26:33.602Z,52.67
2018-12-15T00:29:01.206Z,64.00
2018-12-15T00:31:29.746Z,66.83
2018-12-15T00:33:57.443Z,65.70
2018-12-15T00:36:25.405Z,63.90
2018-12-15T00:38:53.126Z,64.83
2018-12-15T00:41:20.920Z,64.97
2018-12-15T00:43:51.676Z,65.63
2018-12-15T00:46:19.379Z,52.87
2018-12-15T00:48:46.991Z,62.83
2018-12-15T00:51:16.657Z,60.90
2018-12-15T00:53:44.227Z,62.33
2018-12-15T00:56:11.962Z,71.33
2018-12-15T00:58:39.684Z,68.03
2018-12-15T01:01:07.392Z,71.70
2018-12-15T01:03:35.417Z,62.83
2018-12-15T01:06:03.099Z,68.27
2018-12-15T01:08:30.727Z,67.50
2018-12-15T01:10:58.357Z,73.23
2018-12-15T01:13:26.018Z,61.40
2018-12-15T01:15:53.745Z,71.13
2018-12-15T01:18:21.517Z,67.77
2018-12-15T01:20:49.219Z,73.47
2018-12-15T01:23:16.828Z,63.23
2018-12-15T01:25:47.689Z,71.47
2018-12-15T01:28:15.760Z,61.63
2018-12-15T01:30:43.433Z,62.57
2018-12-15T01:33:11.017Z,69.50
2018-12-15T01:35:39.351Z,59.83
2018-12-15T01:38:06.911Z,60.00
2018-12-15T01:40:34.481Z,67.93
2018-12-15T01:43:02.080Z,67.80
2018-12-15T01:45:30.043Z,53.37
2018-12-15T01:47:57.763Z,53.10
2018-12-15T01:50:25.397Z,51.57
2018-12-15T01:52:53.038Z,61.63
2018-12-15T01:55:20.599Z,55.27
2018-12-15T01:57:48.117Z,45.43
2018-12-15T02:00:15.834Z,44.53
2018-12-15T02:02:43.440Z,49.57
2018-12-15T02:05:11.065Z,51.60
2018-12-15T02:07:38.684Z,48.47
2018-12-15T02:10:06.503Z,59.10
2018-12-15T02:12:34.048Z,47.87
2018-12-15T02:15:01.666Z,47.30
2018-12-15T02:17:33.553Z,48.17
2018-12-15T02:19:59.254Z,52.10
2018-12-15T02:22:26.885Z,48.13
2018-12-15T02:24:54.587Z,56.70
2018-12-15T02:27:22.207Z,50.83
2018-12-15T02:29:49.792Z,55.47
2018-12-15T02:32:17.409Z,49.10
2018-12-15T02:34:45.050Z,44.20
2018-12-15T02:37:12.659Z,46.83
2018-12-15T02:39:40.265Z,47.77
2018-12-15T02:42:07.981Z,54.43
2018-12-15T02:44:35.687Z,55.47
2018-12-15T02:47:03.274Z,45.10
2018-12-15T02:49:30.887Z,44.40
2018-12-15T02:51:58.577Z,44.50
2018-12-15T02:54:26.255Z,54.43
2018-12-15T02:56:54.029Z,49.23
2018-12-15T02:59:21.717Z,45.87
2018-12-15T03:01:49.272Z,47.50
2018-12-15T03:04:16.871Z,45.57
2018-12-15T03:06:44.789Z,54.43
2018-12-15T03:09:12.634Z,46.70
2018-12-15T03:11:50.950Z,49.70
2018-12-15T03:14:18.674Z,48.70
2018-12-15T03:16:58.170Z,48.03
2018-12-15T03:19:25.899Z,46.70
2018-12-15T03:21:53.551Z,52.20
2018-12-15T03:24:21.250Z,55.00
2018-12-15T03:26:48.907Z,45.00
2018-12-15T03:29:16.464Z,48.63
2018-12-15T03:31:44.053Z,50.00
2018-12-15T03:34:11.595Z,42.40
2018-12-15T03:36:39.287Z,48.80
2018-12-15T03:39:06.999Z,43.93
2018-12-15T03:41:34.682Z,41.90
2018-12-15T03:44:02.444Z,48.07
2018-12-15T03:46:30.042Z,42.60
2018-12-15T03:48:57.606Z,42.53
2018-12-15T03:51:25.217Z,43.20
2018-12-15T03:53:55.913Z,43.07
2018-12-15T03:56:23.491Z,47.83
2018-12-15T03:58:51.189Z,54.27
2018-12-15T04:01:18.844Z,57.57
2018-12-15T04:03:46.383Z,58.80
2018-12-15T04:06:13.969Z,53.77
2018-12-15T04:08:41.666Z,47.13
2018-12-15T04:11:09.388Z,44.70
2018-12-15T04:13:37.042Z,46.63
2018-12-15T04:16:04.666Z,51.73
2018-12-15T04:18:32.413Z,88.40
2018-12-15T04:21:00.261Z,91.43
2018-12-15T04:23:28.010Z,79.40
2018-12-15T04:25:55.778Z,75.03
2018-12-15T04:28:23.519Z,63.10
2018-12-15T04:30:51.263Z,57.10
2018-12-15T04:33:19.104Z,59.70
2018-12-15T04:35:46.853Z,57.80
2018-12-15T04:38:14.620Z,59.43
2018-12-15T04:40:42.623Z,65.63
2018-12-15T04:43:10.320Z,71.37
2018-12-15T04:45:38.050Z,65.57
2018-12-15T04:48:11.204Z,62.63
2018-12-15T04:50:35.550Z,69.33
2018-12-15T04:53:03.262Z,58.13
2018-12-15T04:55:30.997Z,62.63
2018-12-15T04:57:58.519Z,62.23
2018-12-15T05:00:26.304Z,68.10
2018-12-15T05:02:53.935Z,68.60
2018-12-15T05:05:22.609Z,71.43
2018-12-15T05:07:50.142Z,54.83
2018-12-15T05:10:18.618Z,57.53
2018-12-15T05:12:46.913Z,47.37
2018-12-15T05:15:14.545Z,61.63
2018-12-15T05:17:42.388Z,54.63
2018-12-15T05:20:10.123Z,65.17
2018-12-15T05:22:37.743Z,56.67
2018-12-15T05:25:05.541Z,49.90
2018-12-15T05:27:33.637Z,64.20
2018-12-15T05:30:01.576Z,46.77
2018-12-15T05:32:29.218Z,47.90
2018-12-15T05:34:56.845Z,46.10
2018-12-15T05:37:24.483Z,49.13
2018-12-15T05:39:52.043Z,48.23
2018-12-15T05:42:19.703Z,45.83
2018-12-15T05:44:47.260Z,56.47
2018-12-15T05:47:14.877Z,39.87
2018-12-15T05:49:42.492Z,51.83
2018-12-15T05:52:10.779Z,49.30
2018-12-15T05:54:38.499Z,46.80
2018-12-15T05:57:06.082Z,40.63
2018-12-15T05:59:33.754Z,43.17
2018-12-15T06:02:02.852Z,40.10
2018-12-15T06:04:30.410Z,53.50
2018-12-15T06:06:58.085Z,46.97
2018-12-15T06:09:25.679Z,52.53
2018-12-15T06:11:53.242Z,44.53
2018-12-15T06:14:20.916Z,50.97
2018-12-15T06:16:48.570Z,45.37
2018-12-15T06:19:16.085Z,48.10
2018-12-15T06:21:43.782Z,43.03
2018-12-15T06:24:11.371Z,47.10
2018-12-15T06:26:39.296Z,48.40
2018-12-15T06:29:20.875Z,44.43
2018-12-15T06:31:48.572Z,54.87
2018-12-15T06:34:16.307Z,51.57
2018-12-15T06:36:43.843Z,54.13
2018-12-15T06:39:11.407Z,50.10
2018-12-15T06:41:39.041Z,47.03
2018-12-15T06:44:07.614Z,51.30
2018-12-15T06:46:35.258Z,52.03
2018-12-15T06:49:02.988Z,40.60
2018-12-15T06:51:30.640Z,50.00
2018-12-15T06:53:58.452Z,46.33
2018-12-15T06:56:26.067Z,45.77
2018-12-15T06:58:53.766Z,53.97
2018-12-15T07:01:21.399Z,51.10
2018-12-15T07:03:49.089Z,50.17
2018-12-15T07:06:16.693Z,48.97
2018-12-15T07:08:44.569Z,50.70
2018-12-15T07:11:12.287Z,44.97
2018-12-15T07:13:40.996Z,48.00
2018-12-15T07:16:08.596Z,66.20
2018-12-15T07:18:36.321Z,54.37
2018-12-15T07:21:03.998Z,62.50
2018-12-15T07:23:31.657Z,60.33
2018-12-15T07:25:59.245Z,59.10
2018-12-15T07:28:26.958Z,67.40
2018-12-15T07:30:54.624Z,81.17
2018-12-15T07:33:23.388Z,58.40
2018-12-15T07:35:51.078Z,62.37
2018-12-15T07:38:18.776Z,53.80
2018-12-15T07:40:46.498Z,63.03
2018-12-15T07:43:14.834Z,67.27
2018-12-15T07:45:42.525Z,65.07
2018-12-15T07:48:10.232Z,57.67
2018-12-15T07:50:37.842Z,62.77
2018-12-15T07:53:05.574Z,59.90
2018-12-15T07:55:33.258Z,65.13
2018-12-15T07:58:02.701Z,79.73
2018-12-15T08:00:30.199Z,54.80
2018-12-15T08:02:57.913Z,58.30
2018-12-15T08:05:26.274Z,51.47
2018-12-15T08:07:54.051Z,43.13
2018-12-15T08:10:23.342Z,40.43
2018-12-15T08:13:02.585Z,58.47
2018-12-15T08:15:31.148Z,49.17
2018-12-15T08:17:58.683Z,44.33
2018-12-15T08:20:26.257Z,49.10
2018-12-15T08:22:53.954Z,55.57
2018-12-15T08:25:21.604Z,64.83
2018-12-15T08:27:49.482Z,48.10
2018-12-15T08:30:17.616Z,51.77
2018-12-15T08:32:45.595Z,45.67
2018-12-15T08:35:13.395Z,47.03
2018-12-15T08:37:41.075Z,52.27
2018-12-15T08:40:08.707Z,53.83
2018-12-15T08:42:36.398Z,44.50
2018-12-15T08:45:04.595Z,50.33
2018-12-15T08:47:32.319Z,69.37
2018-12-15T08:50:00.237Z,52.27
2018-12-15T08:52:28.339Z,48.10
2018-12-15T08:54:56.447Z,61.93
2018-12-15T08:57:24.776Z,57.03
2018-12-15T08:59:52.574Z,108.43
2018-12-15T09:02:20.195Z,76.37
2018-12-15T09:04:47.824Z,55.53
2018-12-15T09:07:16.603Z,54.50
2018-12-15T09:09:44.907Z,52.07
2018-12-15T09:12:13.505Z,56.80
2018-12-15T09:14:41.869Z,61.93
2018-12-15T09:17:09.563Z,53.37
2018-12-15T09:19:37.240Z,53.70
2018-12-15T09:22:11.568Z,60.10
2018-12-15T09:24:35.008Z,44.07
2018-12-15T09:27:02.612Z,44.53
2018-12-15T09:29:30.212Z,85.40
2018-12-15T09:31:58.212Z,73.70
2018-12-15T09:34:25.964Z,57.17
2018-12-15T09:36:54.094Z,50.97
2018-12-15T09:39:21.885Z,49.13
2018-12-15T09:41:50.377Z,52.73
2018-12-15T09:44:19.915Z,62.13
2018-12-15T09:46:47.603Z,53.97
2018-12-15T09:49:17.954Z,54.80
2018-12-15T09:51:45.580Z,48.13
2018-12-15T09:54:14.171Z,60.50
2018-12-15T09:56:42.939Z,72.13
2018-12-15T09:59:10.563Z,73.00
2018-12-15T10:01:38.055Z,54.83
2018-12-15T10:04:05.629Z,57.17
2018-12-15T10:06:33.327Z,59.40
2018-12-15T10:09:00.968Z,60.17
2018-12-15T10:11:28.509Z,69.07
2018-12-15T10:13:56.086Z,63.30
2018-12-15T10:16:24.742Z,59.47
2018-12-15T10:18:52.381Z,76.00
2018-12-15T10:21:20.300Z,56.33
2018-12-15T10:23:47.979Z,95.53
2018-12-15T10:26:15.694Z,44.03
2018-12-15T10:28:43.600Z,55.23
2018-12-15T10:31:16.979Z,56.70
2018-12-15T10:33:44.642Z,58.50
2018-12-15T10:36:12.233Z,55.80
2018-12-15T10:38:39.966Z,51.30
2018-12-15T10:41:11.617Z,42.47
2018-12-15T10:43:40.144Z,47.97
2018-12-15T10:46:07.775Z,62.30
2018-12-15T10:48:36.297Z,52.77
2018-12-15T10:51:04.125Z,65.30
2018-12-15T10:53:31.973Z,45.93
2018-12-15T10:55:59.573Z,48.60
2018-12-15T10:58:27.162Z,57.13
2018-12-15T11:00:56.687Z,46.10
2018-12-15T11:03:24.443Z,57.47
2018-12-15T11:05:53.074Z,59.83
2018-12-15T11:08:22.801Z,57.87
2018-12-15T11:10:50.455Z,51.90
2018-12-15T11:13:17.975Z,53.53
2018-12-15T11:15:46.077Z,51.43
2018-12-15T11:18:14.689Z,57.47
2018-12-15T11:20:42.190Z,60.97
2018-12-15T11:23:10.205Z,42.70
2018-12-15T11:25:37.817Z,47.60
2018-12-15T11:28:05.502Z,39.57
2018-12-15T11:30:33.180Z,45.60
2018-12-15T11:35:53.729Z,77.87
2018-12-15T11:38:21.472Z,112.57
2018-12-15T11:40:49.223Z,89.03
2018-12-15T11:43:16.986Z,54.33
2018-12-15T11:45:44.741Z,50.20
2018-12-15T11:48:13.329Z,56.20
2018-12-15T11:50:41.232Z,54.87
2018-12-15T11:53:08.911Z,55.00
2018-12-15T11:55:36.605Z,54.40
2018-12-15T11:58:04.387Z,55.53
2018-12-15T12:00:32.143Z,52.40
2018-12-15T12:02:59.626Z,52.00
2018-12-15T12:05:27.320Z,53.43
2018-12-15T12:07:54.981Z,52.07
2018-12-15T12:10:22.595Z,48.23
2018-12-15T12:12:50.320Z,48.60
2018-12-15T12:15:18.003Z,63.97
2018-12-15T12:17:46.378Z,60.00
2018-12-15T12:20:14.502Z,60.13
2018-12-15T12:22:43.073Z,56.97
2018-12-15T12:27:57.917Z,65.17
2018-12-15T12:30:26.017Z,49.30
2018-12-15T12:32:54.995Z,61.47
2018-12-15T12:35:23.043Z,53.33
2018-12-15T12:37:51.721Z,50.23
2018-12-15T12:40:19.954Z,59.77
2018-12-15T12:42:48.130Z,53.97
2018-12-15T12:50:42.473Z,61.43
2018-12-15T12:53:11.047Z,53.87
2018-12-15T12:55:40.330Z,46.50
2018-12-15T12:58:09.448Z,51.43
2018-12-15T13:00:37.627Z,58.80
2018-12-15T13:03:05.783Z,48.37
2018-12-15T13:05:34.010Z,57.23
2018-12-15T13:08:02.905Z,46.23
2018-12-15T13:10:30.951Z,40.33
2018-12-15T13:12:58.882Z,39.43
2018-12-15T13:15:27.106Z,38.17
2018-12-15T13:17:55.179Z,59.13
2018-12-15T13:20:23.176Z,50.10
2018-12-15T13:22:51.432Z,44.73
2018-12-15T13:25:19.605Z,49.00
2018-12-15T13:27:47.515Z,43.80
2018-12-15T13:30:17.597Z,48.43
2018-12-15T13:32:45.254Z,45.13
2018-12-15T13:35:13.356Z,49.20
2018-12-15T13:37:41.562Z,50.63
2018-12-15T13:40:10.672Z,39.70
2018-12-15T13:42:38.574Z,40.10
2018-12-15T13:47:53.154Z,47.83
2018-12-15T13:50:21.288Z,51.53
2018-12-15T13:52:48.956Z,45.13
2018-12-15T13:55:17.500Z,45.97
2018-12-15T13:57:45.724Z,40.90
2018-12-15T14:00:14.210Z,46.77
2018-12-15T14:02:42.534Z,44.90
2018-12-15T14:05:10.438Z,52.13
2018-12-15T14:07:38.544Z,44.20
2018-12-15T14:10:06.874Z,49.90
2018-12-15T14:12:41.074Z,55.87
2018-12-15T14:15:09.234Z,59.03
2018-12-15T14:17:37.381Z,63.53
2018-12-15T14:20:05.801Z,64.60
2018-12-15T14:22:35.869Z,59.67
2018-12-15T14:25:04.970Z,59.80
2018-12-15T14:27:33.011Z,51.60
2018-12-15T14:30:01.261Z,59.37
2018-12-15T14:32:32.988Z,69.07
2018-12-15T14:35:01.660Z,66.60
2018-12-15T14:37:29.806Z,61.20
2018-12-15T14:39:58.050Z,62.70
2018-12-15T14:42:26.396Z,71.70
2018-12-15T14:44:54.778Z,64.77
2018-12-15T14:47:22.786Z,61.87
2018-12-15T14:49:50.947Z,60.67
2018-12-15T14:52:19.344Z,66.43
2018-12-15T14:54:48.504Z,63.67
2018-12-15T14:57:18.879Z,58.57
2018-12-15T14:59:47.078Z,51.93
2018-12-15T15:02:15.106Z,53.00
2018-12-15T15:04:43.382Z,52.13
2018-12-15T15:07:11.264Z,53.07
2018-12-15T15:09:39.261Z,55.33
2018-12-15T15:12:07.407Z,52.20
2018-12-15T15:14:35.705Z,55.97
2018-12-15T15:17:03.751Z,59.37
2018-12-15T15:19:32.372Z,54.33
2018-12-15T15:22:00.824Z,48.00
2018-12-15T15:24:29.011Z,63.33
2018-12-15T15:26:56.846Z,76.80
2018-12-15T15:29:25.345Z,63.50
2018-12-15T15:31:53.473Z,68.10
2018-12-15T15:34:21.439Z,69.23
2018-12-15T15:36:49.421Z,63.27
2018-12-15T15:39:17.607Z,71.67
2018-12-15T15:41:46.138Z,65.80
2018-12-15T15:44:14.495Z,73.67
2018-12-15T15:46:42.513Z,85.27
2018-12-15T15:49:11.252Z,76.17
2018-12-15T15:51:39.783Z,77.63
2018-12-15T15:54:08.320Z,74.70
2018-12-15T15:56:36.189Z,68.73
2018-12-15T15:59:05.207Z,83.40
2018-12-15T16:01:33.328Z,87.47
2018-12-15T16:04:01.772Z,82.23
2018-12-15T16:24:52.275Z,78.63
2018-12-15T16:27:20.611Z,85.20
2018-12-15T16:29:48.485Z,72.93
2018-12-15T16:32:16.617Z,86.30
2018-12-15T16:34:44.524Z,76.60
2018-12-15T16:37:18.931Z,79.47
2018-12-15T16:39:46.967Z,77.27
2018-12-15T16:42:16.084Z,74.13
2018-12-15T16:44:44.315Z,96.27
2018-12-15T16:47:12.432Z,94.70
2018-12-15T16:49:41.053Z,91.90
2018-12-15T16:52:09.098Z,77.53
2018-12-15T16:54:37.433Z,97.33
2018-12-15T16:57:05.782Z,87.57
2018-12-15T16:59:34.046Z,89.10
2018-12-15T17:02:02.209Z,88.27
2018-12-15T17:04:30.434Z,77.70
2018-12-15T17:06:58.668Z,75.70
2018-12-15T17:09:27.001Z,90.13
2018-12-15T17:11:55.312Z,79.27
2018-12-15T17:14:23.540Z,79.40
2018-12-15T17:16:51.923Z,91.97
2018-12-15T17:19:20.705Z,79.60
2018-12-15T17:21:48.736Z,80.47
2018-12-15T17:24:16.867Z,77.77
2018-12-15T17:26:44.923Z,85.17
2018-12-15T17:29:13.372Z,86.53
2018-12-15T17:31:41.620Z,77.90
2018-12-15T17:34:09.502Z,94.37
2018-12-15T17:36:37.561Z,84.87
2018-12-15T17:39:06.530Z,92.67
2018-12-15T17:41:34.723Z,68.33
2018-12-15T17:44:02.779Z,88.90
2018-12-15T17:46:30.964Z,95.60
2018-12-15T17:48:59.052Z,90.80
2018-12-15T17:51:27.236Z,87.40
2018-12-15T17:53:55.465Z,88.33
2018-12-15T17:56:23.637Z,85.83
2018-12-15T17:58:51.547Z,85.43
2018-12-15T18:01:20.160Z,91.97
2018-12-15T18:03:48.496Z,95.00
2018-12-15T18:06:20.484Z,83.00
2018-12-15T18:08:48.732Z,88.87
2018-12-15T18:11:17.706Z,96.17
2018-12-15T18:13:45.786Z,86.83
2018-12-15T18:16:14.230Z,93.23
2018-12-15T18:18:42.400Z,98.83
2018-12-15T18:21:10.898Z,91.60
2018-12-15T18:23:39.558Z,89.23
2018-12-15T18:26:07.723Z,83.23
2018-12-15T18:28:36.203Z,77.63
2018-12-15T18:31:04.668Z,85.20
2018-12-15T18:33:37.023Z,100.23
2018-12-15T18:36:02.809Z,78.60
2018-12-15T18:38:32.614Z,82.23
2018-12-15T18:41:04.200Z,92.50
2018-12-15T18:43:32.112Z,86.80
2018-12-15T18:46:00.548Z,88.77
2018-12-15T18:48:32.263Z,102.77
2018-12-15T18:51:00.873Z,86.17
2018-12-15T18:53:28.787Z,94.03
2018-12-15T18:55:56.758Z,93.03
2018-12-15T18:58:24.886Z,89.07
2018-12-15T19:00:54.772Z,82.37
2018-12-15T19:03:23.771Z,97.90
2018-12-15T19:05:51.784Z,88.50
2018-12-15T19:08:20.105Z,83.50
2018-12-15T19:10:48.367Z,89.43
2018-12-15T19:13:16.728Z,82.97
2018-12-15T19:15:49.013Z,82.30
2018-12-15T19:18:17.455Z,93.73
2018-12-15T19:20:45.490Z,83.23
2018-12-15T19:23:14.048Z,85.03
2018-12-15T19:25:42.055Z,93.93
2018-12-15T19:30:36.132Z,98.40
2018-12-15T19:33:04.656Z,100.30
2018-12-15T19:35:32.820Z,88.00
2018-12-15T19:38:00.925Z,100.47
2018-12-15T19:40:29.053Z,98.13
2018-12-15T19:42:57.457Z,82.40
2018-12-15T19:45:25.807Z,101.50
2018-12-15T19:47:54.116Z,102.27
2018-12-15T19:50:22.884Z,96.93
2018-12-15T19:52:51.236Z,97.27
2018-12-15T19:55:19.468Z,91.97
2018-12-15T19:57:47.618Z,94.80
2018-12-15T20:00:15.930Z,95.33
2018-12-15T20:02:44.431Z,89.23
2018-12-15T20:05:14.052Z,89.63
2018-12-15T20:07:42.563Z,89.67
2018-12-15T20:10:11.293Z,91.80
2018-12-15T20:12:39.362Z,80.03
2018-12-15T20:15:07.865Z,85.97
2018-12-15T20:17:38.598Z,89.07
2018-12-15T20:20:08.085Z,85.87
2018-12-15T20:22:37.401Z,99.33
2018-12-15T20:25:06.499Z,86.90
2018-12-15T20:27:34.994Z,93.53
2018-12-15T20:30:03.371Z,95.07
2018-12-15T20:32:31.798Z,92.00
2018-12-15T20:35:00.221Z,86.50
2018-12-15T20:37:28.272Z,93.30
2018-12-15T20:39:56.648Z,119.53
2018-12-15T20:42:24.886Z,97.40
2018-12-15T20:44:52.944Z,111.87
2018-12-15T20:47:27.701Z,88.83
2018-12-15T20:49:51.403Z,80.50
2018-12-15T20:52:19.611Z,74.10
2018-12-15T20:54:48.127Z,70.33
2018-12-15T20:57:16.163Z,82.63
2018-12-15T20:59:44.385Z,67.37
2018-12-15T21:02:12.844Z,75.87
2018-12-15T21:04:40.700Z,66.77
2018-12-15T21:07:08.421Z,72.23
2018-12-15T21:09:36.078Z,68.87
2018-12-15T21:12:04.545Z,69.80
2018-12-15T21:14:32.626Z,64.07
2018-12-15T21:17:00.132Z,57.97
2018-12-15T21:19:27.628Z,52.43
2018-12-15T21:21:55.187Z,75.63
2018-12-15T21:24:22.847Z,57.80
2018-12-15T21:26:50.481Z,59.53
2018-12-15T21:29:17.964Z,59.00
2018-12-15T21:31:46.840Z,65.30
2018-12-15T21:34:14.733Z,63.10
2018-12-15T21:36:42.850Z,67.93
2018-12-15T21:39:10.383Z,55.63
2018-12-15T21:41:38.047Z,64.70
2018-12-15T21:44:06.155Z,70.57
2018-12-15T21:46:34.620Z,73.70
2018-12-15T21:49:02.724Z,63.80
2018-12-15T21:51:30.238Z,67.47
2018-12-15T21:53:58.788Z,57.07
2018-12-15T21:56:26.434Z,54.60
2018-12-15T21:58:54.095Z,58.27
2018-12-15T22:01:26.123Z,74.80
2018-12-15T22:03:53.810Z,53.67
2018-12-15T22:06:21.321Z,56.70
2018-12-15T22:08:48.876Z,51.77
2018-12-15T22:11:16.456Z,53.43
2018-12-15T22:13:44.305Z,58.53
2018-12-15T22:16:11.912Z,53.73
2018-12-15T22:18:41.573Z,44.93
2018-12-15T22:21:09.080Z,51.67
2018-12-15T22:23:36.579Z,48.87
2018-12-15T22:26:04.083Z,60.40
2018-12-15T22:28:31.578Z,51.70
2018-12-15T22:30:59.223Z,50.37
2018-12-15T22:33:26.713Z,53.60
2018-12-15T22:35:54.705Z,58.40
2018-12-15T22:38:22.223Z,53.80
2018-12-15T22:40:50.073Z,56.70
2018-12-15T22:43:17.764Z,45.03
2018-12-15T22:45:45.373Z,44.83
2018-12-15T22:48:12.900Z,45.43
2018-12-15T22:50:40.473Z,50.47
2018-12-15T22:53:08.108Z,41.07
2018-12-15T22:55:35.726Z,42.87
2018-12-15T22:58:03.427Z,56.33
2018-12-15T23:00:33.129Z,44.93
2018-12-15T23:03:00.743Z,36.57
2018-12-15T23:05:28.415Z,41.00
2018-12-15T23:07:56.026Z,53.50
2018-12-15T23:10:23.666Z,53.50
2018-12-15T23:12:51.162Z,47.40
2018-12-15T23:15:18.723Z,62.17
2018-12-15T23:17:46.409Z,45.87
2018-12-15T23:20:14.013Z,46.43
2018-12-15T23:22:41.613Z,38.90
2018-12-15T23:25:10.013Z,40.07
2018-12-15T23:27:37.629Z,42.40
2018-12-15T23:30:06.501Z,49.27
2018-12-15T23:32:34.192Z,37.80
2018-12-15T23:35:02.520Z,48.90
2018-12-15T23:37:31.029Z,54.10
2018-12-15T23:39:58.618Z,49.10
2018-12-15T23:42:26.290Z,50.17
2018-12-15T23:44:53.993Z,55.13
2018-12-15T23:47:21.604Z,46.10
2018-12-15T23:49:50.224Z,51.70
2018-12-15T23:52:23.263Z,46.40
2018-12-15T23:54:47.523Z,51.40
2018-12-15T23:57:15.257Z,49.00
2018-12-15T23:59:42.903Z,55.50
